createdAt,value
2018-07-23T00:00:16.636Z,100958.53
2018-07-23T00:02:43.873Z,100967.95
2018-07-23T00:05:10.978Z,100960.50
2018-07-23T00:07:38.132Z,100963.03
2018-07-23T00:10:05.322Z,100963.03
2018-07-23T00:12:32.500Z,100963.98
2018-07-23T00:14:59.657Z,100967.19
2018-07-23T00:17:26.775Z,100964.52
2018-07-23T00:19:53.920Z,100967.43
2018-07-23T00:22:21.229Z,100965.16
2018-07-23T00:24:48.351Z,100962.17
2018-07-23T00:27:15.477Z,100960.79
2018-07-23T00:29:42.647Z,100962.28
2018-07-23T00:32:09.761Z,100961.99
2018-07-23T00:34:36.884Z,100965.75
2018-07-23T00:37:04.100Z,100954.70
2018-07-23T00:39:31.239Z,100963.42
2018-07-23T00:41:58.393Z,100964.91
2018-07-23T00:44:25.604Z,100969.23
2018-07-23T00:46:52.767Z,100966.84
2018-07-23T00:49:19.912Z,100963.42
2018-07-23T00:51:47.179Z,100960.12
2018-07-23T00:54:14.293Z,100960.38
2018-07-23T00:56:41.448Z,100959.73
2018-07-23T00:59:08.634Z,100961.39
2018-07-23T01:01:35.751Z,100963.45
2018-07-23T01:04:02.969Z,100961.94
2018-07-23T01:06:30.116Z,100967.12
2018-07-23T01:08:57.236Z,100967.80
2018-07-23T01:11:24.348Z,100966.25
2018-07-23T01:13:51.563Z,100968.66
2018-07-23T01:16:18.703Z,100969.70
2018-07-23T01:18:45.823Z,100972.19
2018-07-23T01:21:13.057Z,100975.84
2018-07-23T01:23:40.249Z,100978.69
2018-07-23T01:26:07.364Z,100979.76
2018-07-23T01:28:34.519Z,100978.20
2018-07-23T01:31:01.649Z,100979.53
2018-07-23T01:33:28.763Z,100974.81
2018-07-23T01:35:55.909Z,100974.02
2018-07-23T01:38:23.027Z,100981.71
2018-07-23T01:40:50.140Z,100975.99
2018-07-23T01:43:17.372Z,100977.86
2018-07-23T01:45:44.513Z,100980.27
2018-07-23T01:48:11.648Z,100978.14
2018-07-23T01:50:38.809Z,100985.86
2018-07-23T01:53:05.940Z,100982.00
2018-07-23T01:55:33.120Z,100978.98
2018-07-23T01:58:00.366Z,100978.18
2018-07-23T02:00:27.493Z,100982.33
2018-07-23T02:02:54.591Z,100983.80
2018-07-23T02:05:21.833Z,100981.86
2018-07-23T02:07:48.952Z,100980.30
2018-07-23T02:10:16.120Z,100981.30
2018-07-23T02:12:43.321Z,100976.94
2018-07-23T02:15:10.451Z,100970.16
2018-07-23T02:17:37.572Z,100987.58
2018-07-23T02:20:05.005Z,100982.97
2018-07-23T02:22:32.141Z,100983.02
2018-07-23T02:25:00.249Z,100988.75
2018-07-23T02:27:27.419Z,100985.06
2018-07-23T02:29:54.540Z,100990.31
2018-07-23T02:32:21.638Z,100989.36
2018-07-23T02:34:48.760Z,100989.26
2018-07-23T02:37:15.961Z,100987.27
2018-07-23T02:39:43.211Z,100998.03
2018-07-23T02:42:10.380Z,100995.38
2018-07-23T02:44:37.718Z,101000.13
2018-07-23T02:47:05.273Z,100999.46
2018-07-23T02:49:32.451Z,101000.46
2018-07-23T02:51:59.576Z,101001.00
2018-07-23T02:54:26.713Z,101002.56
2018-07-23T02:56:53.980Z,101004.72
2018-07-23T02:59:21.083Z,101003.82
2018-07-23T03:01:48.196Z,100999.63
2018-07-23T03:04:15.440Z,101004.16
2018-07-23T03:06:42.590Z,101001.36
2018-07-23T03:09:09.707Z,101003.78
2018-07-23T03:11:36.864Z,101003.02
2018-07-23T03:14:04.014Z,101007.18
2018-07-23T03:16:31.200Z,101006.91
2018-07-23T03:18:58.347Z,101008.31
2018-07-23T03:21:25.465Z,101011.60
2018-07-23T03:23:52.564Z,101012.89
2018-07-23T03:26:19.710Z,101010.00
2018-07-23T03:28:46.852Z,101014.06
2018-07-23T03:31:13.970Z,101012.83
2018-07-23T03:33:41.232Z,101020.75
2018-07-23T03:36:08.345Z,101018.22
2018-07-23T03:38:35.532Z,101019.25
2018-07-23T03:41:02.792Z,101023.47
2018-07-23T03:43:29.940Z,101023.23
2018-07-23T03:45:57.084Z,101020.10
2018-07-23T03:48:24.240Z,101021.14
2018-07-23T03:50:51.366Z,101019.84
2018-07-23T03:53:18.541Z,101023.63
2018-07-23T03:55:45.769Z,101018.05
2018-07-23T03:58:12.924Z,101026.87
2018-07-23T04:00:40.058Z,101027.16
2018-07-23T04:03:11.840Z,101028.02
2018-07-23T04:05:38.984Z,101029.22
2018-07-23T04:08:06.180Z,101031.10
2018-07-23T04:10:33.344Z,101031.57
2018-07-23T04:13:00.459Z,101034.72
2018-07-23T04:15:27.579Z,101032.11
2018-07-23T04:18:01.283Z,101038.69
2018-07-23T04:20:28.641Z,101034.83
2018-07-23T04:22:55.735Z,101031.43
2018-07-23T04:25:22.958Z,101038.84
2018-07-23T04:27:50.111Z,101041.77
2018-07-23T04:30:17.288Z,101047.56
2018-07-23T04:32:44.528Z,101046.78
2018-07-23T04:35:11.670Z,101051.58
2018-07-23T04:37:38.814Z,101057.92
2018-07-23T04:40:06.179Z,101061.16
2018-07-23T04:42:33.316Z,101060.11
2018-07-23T04:45:00.442Z,101057.41
2018-07-23T04:47:27.621Z,101060.77
2018-07-23T04:49:54.745Z,101070.27
2018-07-23T04:52:21.920Z,101065.11
2018-07-23T04:54:49.072Z,101063.55
2018-07-23T04:57:16.213Z,101064.95
2018-07-23T04:59:43.352Z,101067.14
2018-07-23T05:02:10.508Z,101062.14
2018-07-23T05:04:37.636Z,101069.12
2018-07-23T05:07:04.808Z,101066.30
2018-07-23T05:09:32.096Z,101058.02
2018-07-23T05:11:59.236Z,101061.97
2018-07-23T05:14:26.378Z,101065.64
2018-07-23T05:16:53.636Z,101061.09
2018-07-23T05:19:20.775Z,101059.05
2018-07-23T05:21:47.895Z,101068.63
2018-07-23T05:24:15.055Z,101066.08
2018-07-23T05:26:42.195Z,101066.67
2018-07-23T05:29:09.318Z,101073.52
2018-07-23T05:31:36.532Z,101069.55
2018-07-23T05:34:03.689Z,101067.83
2018-07-23T05:36:30.856Z,101065.50
2018-07-23T05:38:58.004Z,101071.31
2018-07-23T05:41:25.171Z,101064.22
2018-07-23T05:43:52.301Z,101073.48
2018-07-23T05:46:20.891Z,101074.70
2018-07-23T05:48:48.044Z,101076.86
2018-07-23T05:51:15.256Z,101067.63
2018-07-23T05:53:42.460Z,101075.70
2018-07-23T05:56:09.583Z,101080.14
2018-07-23T05:58:36.745Z,101079.09
2018-07-23T06:01:03.975Z,101078.23
2018-07-23T06:03:31.160Z,101082.05
2018-07-23T06:05:58.278Z,101082.77
2018-07-23T06:08:25.517Z,101083.85
2018-07-23T06:10:52.715Z,101082.98
2018-07-23T06:13:19.854Z,101087.87
2018-07-23T06:15:47.464Z,101085.02
2018-07-23T06:18:14.660Z,101090.09
2018-07-23T06:20:41.794Z,101094.14
2018-07-23T06:23:08.997Z,101092.52
2018-07-23T06:25:36.247Z,101097.41
2018-07-23T06:28:03.419Z,101104.95
2018-07-23T06:30:30.681Z,101094.77
2018-07-23T06:32:57.907Z,101101.47
2018-07-23T06:35:25.028Z,101104.21
2018-07-23T06:37:52.212Z,101095.97
2018-07-23T06:40:19.443Z,101095.30
2018-07-23T06:42:46.581Z,101096.16
2018-07-23T06:45:14.123Z,101093.67
2018-07-23T06:47:41.260Z,101095.19
2018-07-23T06:50:08.403Z,101099.47
2018-07-23T06:52:35.687Z,101101.87
2018-07-23T06:55:02.883Z,101099.58
2018-07-23T06:57:30.098Z,101100.72
2018-07-23T06:59:57.227Z,101098.02
2018-07-23T07:02:24.384Z,101101.63
2018-07-23T07:04:51.518Z,101094.56
2018-07-23T07:07:18.680Z,101101.24
2018-07-23T07:09:45.891Z,101108.74
2018-07-23T07:12:13.056Z,101103.48
2018-07-23T07:14:40.231Z,101103.95
2018-07-23T07:17:07.375Z,101103.67
2018-07-23T07:19:34.514Z,101104.55
2018-07-23T07:22:01.779Z,101106.75
2018-07-23T07:24:28.976Z,101109.44
2018-07-23T07:26:56.150Z,101113.56
2018-07-23T07:29:23.472Z,101112.83
2018-07-23T07:31:50.593Z,101116.80
2018-07-23T07:34:17.699Z,101113.05
2018-07-23T07:36:44.869Z,101113.11
2018-07-23T07:39:12.782Z,101115.74
2018-07-23T07:41:40.367Z,101105.23
2018-07-23T07:44:08.199Z,101105.41
2018-07-23T07:46:35.525Z,101121.20
2018-07-23T07:49:02.756Z,101112.02
2018-07-23T07:51:30.044Z,101111.64
2018-07-23T07:53:57.177Z,101109.20
2018-07-23T07:56:24.340Z,101114.22
2018-07-23T07:58:51.655Z,101114.16
2018-07-23T08:01:18.864Z,101116.36
2018-07-23T08:03:45.983Z,101110.81
2018-07-23T08:06:13.144Z,101107.84
2018-07-23T08:08:40.292Z,101110.22
2018-07-23T08:11:07.453Z,101113.14
2018-07-23T08:13:35.071Z,101114.63
2018-07-23T08:16:02.195Z,101110.91
2018-07-23T08:18:29.363Z,101113.02
2018-07-23T08:20:56.549Z,101111.02
2018-07-23T08:23:23.664Z,101109.00
2018-07-23T08:25:50.781Z,101113.79
2018-07-23T08:28:18.043Z,101111.28
2018-07-23T08:30:45.161Z,101119.27
2018-07-23T08:33:12.297Z,101124.03
2018-07-23T08:35:39.471Z,101129.73
2018-07-23T08:38:06.615Z,101136.73
2018-07-23T08:40:33.764Z,101132.22
2018-07-23T08:43:00.973Z,101131.34
2018-07-23T08:45:28.085Z,101137.48
2018-07-23T08:47:55.214Z,101131.83
2018-07-23T08:50:22.368Z,101140.22
2018-07-23T08:52:49.503Z,101140.76
2018-07-23T08:55:16.641Z,101140.72
2018-07-23T08:57:43.816Z,101139.68
2018-07-23T09:00:10.967Z,101137.16
2018-07-23T09:02:38.110Z,101141.81
2018-07-23T09:05:05.318Z,101141.59
2018-07-23T09:07:32.534Z,101145.28
2018-07-23T09:09:59.648Z,101139.05
2018-07-23T09:12:26.847Z,101148.32
2018-07-23T09:14:54.032Z,101134.53
2018-07-23T09:17:21.215Z,101135.92
2018-07-23T09:19:48.381Z,101144.98
2018-07-23T09:22:15.525Z,101144.58
2018-07-23T09:24:42.694Z,101141.16
2018-07-23T09:27:09.964Z,101136.27
2018-07-23T09:29:37.118Z,101132.46
2018-07-23T09:32:04.301Z,101139.22
2018-07-23T09:34:31.471Z,101129.66
2018-07-23T09:36:58.619Z,101132.33
2018-07-23T09:39:25.741Z,101133.66
2018-07-23T09:41:52.904Z,101138.55
2018-07-23T09:44:20.084Z,101131.42
2018-07-23T09:46:47.200Z,101135.88
2018-07-23T09:49:14.376Z,101136.29
2018-07-23T09:51:41.514Z,101130.77
2018-07-23T09:54:08.682Z,101135.10
2018-07-23T09:56:35.896Z,101137.11
2018-07-23T09:59:03.058Z,101132.32
2018-07-23T10:01:30.194Z,101132.81
2018-07-23T10:03:57.465Z,101128.72
2018-07-23T10:06:24.600Z,101130.34
2018-07-23T10:08:51.909Z,101135.44
2018-07-23T10:11:19.268Z,101133.66
2018-07-23T10:13:46.388Z,101130.40
2018-07-23T10:16:13.558Z,101131.31
2018-07-23T10:18:40.723Z,101127.52
2018-07-23T10:21:07.906Z,101120.50
2018-07-23T10:23:35.071Z,101125.66
2018-07-23T10:26:02.248Z,101129.69
2018-07-23T10:28:29.439Z,101127.77
2018-07-23T10:30:56.579Z,101125.30
2018-07-23T10:33:23.836Z,101129.98
2018-07-23T10:35:50.959Z,101120.51
2018-07-23T10:38:18.111Z,101120.09
2018-07-23T10:40:45.489Z,101119.39
2018-07-23T10:43:12.602Z,101120.94
2018-07-23T10:45:39.774Z,101113.48
2018-07-23T10:48:07.113Z,101121.87
2018-07-23T10:50:34.246Z,101109.75
2018-07-23T10:53:01.373Z,101108.91
2018-07-23T10:55:28.568Z,101108.17
2018-07-23T10:57:55.710Z,101104.83
2018-07-23T11:00:22.853Z,101110.34
2018-07-23T11:02:50.041Z,101101.80
2018-07-23T11:05:17.165Z,101100.10
2018-07-23T11:07:44.304Z,101103.65
2018-07-23T11:10:11.518Z,101102.69
2018-07-23T11:12:38.710Z,101102.14
2018-07-23T11:15:06.637Z,101101.63
2018-07-23T11:17:34.072Z,101087.19
2018-07-23T11:20:01.228Z,101100.08
2018-07-23T11:22:28.378Z,101098.39
2018-07-23T11:24:55.647Z,101105.78
2018-07-23T11:27:22.709Z,101095.30
2018-07-23T11:29:49.874Z,101088.48
2018-07-23T11:32:17.153Z,101096.80
2018-07-23T11:34:44.279Z,101100.57
2018-07-23T11:37:11.415Z,101092.56
2018-07-23T11:39:38.600Z,101094.43
2018-07-23T11:42:05.777Z,101103.52
2018-07-23T11:44:32.917Z,101095.92
2018-07-23T11:47:00.140Z,101095.58
2018-07-23T11:49:27.276Z,101101.08
2018-07-23T11:51:54.429Z,101093.44
2018-07-23T11:54:21.605Z,101092.19
2018-07-23T11:56:48.794Z,101091.35
2018-07-23T11:59:16.053Z,101087.92
2018-07-23T12:01:43.287Z,101092.53
2018-07-23T12:04:10.732Z,101088.66
2018-07-23T12:06:37.552Z,101083.68
2018-07-23T12:09:07.266Z,101090.98
2018-07-23T12:11:34.452Z,101096.28
2018-07-23T12:14:01.602Z,101090.35
2018-07-23T12:16:28.852Z,101079.78
2018-07-23T12:18:56.056Z,101089.88
2018-07-23T12:21:23.178Z,101086.14
2018-07-23T12:23:50.455Z,101083.06
2018-07-23T12:26:17.600Z,101084.42
2018-07-23T12:28:44.738Z,101091.44
2018-07-23T12:31:11.906Z,101084.49
2018-07-23T12:33:39.082Z,101081.60
2018-07-23T12:36:07.495Z,101077.98
2018-07-23T12:38:34.714Z,101080.55
2018-07-23T12:41:01.886Z,101087.36
2018-07-23T12:43:29.009Z,101089.66
2018-07-23T12:45:56.275Z,101084.83
2018-07-23T12:48:23.439Z,101073.78
2018-07-23T12:50:50.583Z,101080.05
2018-07-23T12:53:17.856Z,101072.34
2018-07-23T12:55:44.976Z,101072.29
2018-07-23T12:58:12.112Z,101069.76
2018-07-23T13:00:39.336Z,101074.16
2018-07-23T13:03:06.460Z,101084.66
2018-07-23T13:05:33.645Z,101076.19
2018-07-23T13:08:02.495Z,101074.30
2018-07-23T13:10:29.620Z,101075.20
2018-07-23T13:12:56.777Z,101079.43
2018-07-23T13:15:23.964Z,101075.84
2018-07-23T13:17:51.072Z,101076.25
2018-07-23T13:20:18.314Z,101075.55
2018-07-23T13:22:45.665Z,101078.03
2018-07-23T13:25:12.830Z,101082.95
2018-07-23T13:27:39.924Z,101073.70
2018-07-23T13:30:07.187Z,101080.77
2018-07-23T13:32:34.337Z,101079.97
2018-07-23T13:35:01.491Z,101082.28
2018-07-23T13:37:28.748Z,101077.33
2018-07-23T13:39:55.863Z,101084.09
2018-07-23T13:42:22.997Z,101095.44
2018-07-23T13:44:50.171Z,101078.98
2018-07-23T13:47:17.319Z,101074.54
2018-07-23T13:49:44.435Z,101067.29
2018-07-23T13:52:11.692Z,101070.12
2018-07-23T13:54:38.844Z,101063.34
2018-07-23T13:57:06.024Z,101069.19
2018-07-23T13:59:33.186Z,101067.59
2018-07-23T14:02:00.360Z,101062.79
2018-07-23T14:04:27.499Z,101071.06
2018-07-23T14:06:54.664Z,101062.94
2018-07-23T14:09:21.780Z,101062.83
2018-07-23T14:11:48.916Z,101065.44
2018-07-23T14:14:16.080Z,101061.22
2018-07-23T14:16:43.200Z,101061.37
2018-07-23T14:19:10.380Z,101059.80
2018-07-23T14:21:37.643Z,101057.70
2018-07-23T14:24:04.908Z,101068.72
2018-07-23T14:26:32.064Z,101063.28
2018-07-23T14:28:59.280Z,101065.73
2018-07-23T14:31:26.407Z,101067.87
2018-07-23T14:33:53.519Z,101062.16
2018-07-23T14:36:20.826Z,101056.86
2018-07-23T14:38:47.977Z,101057.48
2018-07-23T14:41:15.141Z,101063.02
2018-07-23T14:43:42.458Z,101052.90
2018-07-23T14:46:09.598Z,101051.07
2018-07-23T14:48:36.889Z,101055.30
2018-07-23T14:51:04.150Z,101048.73
2018-07-23T14:53:31.275Z,101051.98
2018-07-23T14:55:58.379Z,101047.14
2018-07-23T14:58:25.552Z,101049.03
2018-07-23T15:00:52.705Z,101049.78
2018-07-23T15:03:19.831Z,101043.70
2018-07-23T15:05:46.976Z,101051.81
2018-07-23T15:08:14.388Z,101046.38
2018-07-23T15:10:41.531Z,101039.40
2018-07-23T15:13:08.737Z,101043.55
2018-07-23T15:15:35.895Z,101037.39
2018-07-23T15:18:03.065Z,101050.65
2018-07-23T15:20:30.247Z,101048.72
2018-07-23T15:22:57.488Z,101042.62
2018-07-23T15:25:24.644Z,101041.45
2018-07-23T15:27:51.826Z,101044.55
2018-07-23T15:30:18.952Z,101050.14
2018-07-23T15:32:46.099Z,101044.92
2018-07-23T15:35:13.301Z,101054.91
2018-07-23T15:37:40.416Z,101049.33
2018-07-23T15:40:07.604Z,101042.47
2018-07-23T15:42:34.777Z,101045.20
2018-07-23T15:45:02.062Z,101038.25
2018-07-23T15:47:29.108Z,101039.84
2018-07-23T15:49:56.266Z,101037.61
2018-07-23T15:52:23.395Z,101039.38
2018-07-23T15:54:50.531Z,101038.91
2018-07-23T15:57:17.795Z,101040.59
2018-07-23T15:59:44.939Z,101037.03
2018-07-23T16:02:12.091Z,101031.39
2018-07-23T16:04:39.270Z,101031.48
2018-07-23T16:07:06.401Z,101026.83
2018-07-23T16:09:33.631Z,101031.84
2018-07-23T16:12:00.826Z,101023.37
2018-07-23T16:14:27.951Z,101031.67
2018-07-23T16:16:55.067Z,101029.11
2018-07-23T16:19:22.220Z,101025.69
2018-07-23T16:21:49.367Z,101021.66
2018-07-23T16:24:16.581Z,101024.70
2018-07-23T16:26:43.777Z,101029.20
2018-07-23T16:29:10.887Z,101032.73
2018-07-23T16:31:38.051Z,101034.23
2018-07-23T16:34:05.224Z,101034.73
2018-07-23T16:36:32.364Z,101029.09
2018-07-23T16:38:59.498Z,101026.69
2018-07-23T16:41:26.680Z,101028.34
2018-07-23T16:43:53.827Z,101025.12
2018-07-23T16:46:20.965Z,101021.23
2018-07-23T16:48:48.143Z,101024.99
2018-07-23T16:51:15.264Z,101025.18
2018-07-23T16:53:42.445Z,101024.25
2018-07-23T16:56:09.645Z,101020.69
2018-07-23T16:58:36.772Z,101027.67
2018-07-23T17:01:03.941Z,101024.47
2018-07-23T17:03:31.097Z,101023.09
2018-07-23T17:05:58.283Z,101030.34
2018-07-23T17:08:25.391Z,101026.33
2018-07-23T17:10:52.570Z,101025.62
2018-07-23T17:13:19.700Z,101022.30
2018-07-23T17:15:46.867Z,101028.30
2018-07-23T17:18:14.095Z,101033.83
2018-07-23T17:20:41.207Z,101029.94
2018-07-23T17:23:08.331Z,101031.20
2018-07-23T17:25:36.091Z,101026.50
2018-07-23T17:28:03.250Z,101033.11
2018-07-23T17:30:30.376Z,101035.95
2018-07-23T17:32:57.519Z,101031.96
2018-07-23T17:35:24.666Z,101032.77
2018-07-23T17:37:51.807Z,101030.50
2018-07-23T17:40:18.992Z,101030.19
2018-07-23T17:42:46.106Z,101029.80
2018-07-23T17:45:13.264Z,101032.14
2018-07-23T17:47:40.403Z,101032.59
2018-07-23T17:50:07.620Z,101032.75
2018-07-23T17:52:34.760Z,101036.92
2018-07-23T17:55:01.975Z,101042.32
2018-07-23T17:57:29.105Z,101038.30
2018-07-23T17:59:56.249Z,101035.48
2018-07-23T18:02:23.471Z,101037.72
2018-07-23T18:04:50.590Z,101040.94
2018-07-23T18:07:17.801Z,101041.20
2018-07-23T18:09:44.949Z,101046.35
2018-07-23T18:12:12.106Z,101044.90
2018-07-23T18:14:39.219Z,101045.16
2018-07-23T18:17:06.567Z,101050.28
2018-07-23T18:19:33.773Z,101053.09
2018-07-23T18:22:00.889Z,101051.88
2018-07-23T18:24:28.600Z,101052.25
2018-07-23T18:26:55.785Z,101058.62
2018-07-23T18:29:22.923Z,101058.48
2018-07-23T18:31:50.090Z,101058.34
2018-07-23T18:34:17.220Z,101059.46
2018-07-23T18:36:44.361Z,101059.81
2018-07-23T18:39:12.361Z,101055.23
2018-07-23T18:41:39.984Z,101054.70
2018-07-23T18:44:07.313Z,101058.97
2018-07-23T18:46:34.484Z,101068.34
2018-07-23T18:49:23.294Z,101071.52
2018-07-23T18:51:51.624Z,101066.45
2018-07-23T18:54:20.475Z,101068.16
2018-07-23T18:56:49.780Z,101063.16
2018-07-23T18:59:17.030Z,101076.55
2018-07-23T19:01:44.236Z,101076.67
2018-07-23T19:04:11.348Z,101076.08
2018-07-23T19:06:38.567Z,101077.09
2018-07-23T19:09:09.191Z,101082.89
2018-07-23T19:11:36.380Z,101089.14
2018-07-23T19:14:03.764Z,101087.84
2018-07-23T19:16:30.903Z,101089.05
2018-07-23T19:18:59.043Z,101099.19
2018-07-23T19:21:26.219Z,101101.67
2018-07-23T19:23:53.321Z,101098.84
2018-07-23T19:26:20.467Z,101106.09
2018-07-23T19:28:47.651Z,101112.05
2018-07-23T19:31:14.787Z,101112.59
2018-07-23T19:33:41.934Z,101116.97
2018-07-23T19:36:09.147Z,101114.71
2018-07-23T19:38:36.276Z,101113.75
2018-07-23T19:41:03.477Z,101117.79
2018-07-23T19:43:30.839Z,101116.91
2018-07-23T19:45:58.068Z,101117.11
2018-07-23T19:48:25.232Z,101117.83
2018-07-23T19:50:52.460Z,101116.66
2018-07-23T19:53:19.621Z,101118.64
2018-07-23T19:55:46.831Z,101120.36
2018-07-23T19:58:14.102Z,101128.16
2018-07-23T20:00:41.231Z,101125.09
2018-07-23T20:03:08.390Z,101124.89
2018-07-23T20:05:36.572Z,101128.46
2018-07-23T20:08:03.781Z,101126.55
2018-07-23T20:10:30.882Z,101135.96
2018-07-23T20:12:58.265Z,101137.75
2018-07-23T20:15:25.321Z,101132.48
2018-07-23T20:17:52.439Z,101128.50
2018-07-23T20:20:19.647Z,101129.02
2018-07-23T20:22:46.744Z,101121.95
2018-07-23T20:25:13.865Z,101129.94
2018-07-23T20:27:41.087Z,101128.56
2018-07-23T20:30:08.329Z,101134.06
2018-07-23T20:32:35.460Z,101129.08
2018-07-23T20:35:02.801Z,101125.70
2018-07-23T20:37:29.943Z,101119.93
2018-07-23T20:39:57.080Z,101119.89
2018-07-23T20:42:24.237Z,101122.88
2018-07-23T20:44:51.356Z,101124.08
2018-07-23T20:47:18.492Z,101122.70
2018-07-23T20:49:45.720Z,101129.53
2018-07-23T20:52:12.864Z,101134.31
2018-07-23T20:54:40.004Z,101130.64
2018-07-23T20:57:07.227Z,101133.94
2018-07-23T20:59:34.343Z,101132.36
2018-07-23T21:02:01.514Z,101131.61
2018-07-23T21:04:28.742Z,101131.16
2018-07-23T21:06:55.861Z,101133.71
2018-07-23T21:09:22.984Z,101132.71
2018-07-23T21:11:50.208Z,101133.73
2018-07-23T21:14:17.355Z,101137.34
2018-07-23T21:16:45.199Z,101134.39
2018-07-23T21:19:12.363Z,101139.00
2018-07-23T21:24:12.453Z,101142.08
2018-07-23T21:26:39.596Z,101143.27
2018-07-23T21:29:06.745Z,101143.08
2018-07-23T21:31:34.053Z,101146.86
2018-07-23T21:34:01.177Z,101148.48
2018-07-23T21:36:28.285Z,101154.53
2018-07-23T21:38:55.522Z,101149.34
2018-07-23T21:41:22.653Z,101155.71
2018-07-23T21:43:49.869Z,101153.91
2018-07-23T21:46:17.066Z,101150.45
2018-07-23T21:48:44.180Z,101149.19
2018-07-23T21:51:11.291Z,101143.97
2018-07-23T21:53:38.459Z,101151.09
2018-07-23T21:56:05.692Z,101150.41
2018-07-23T21:58:32.807Z,101146.55
2018-07-23T22:00:59.994Z,101149.82
2018-07-23T22:03:27.143Z,101156.02
2018-07-23T22:05:54.304Z,101155.39
2018-07-23T22:08:21.577Z,101158.13
2018-07-23T22:10:48.718Z,101161.03
2018-07-23T22:13:15.851Z,101159.44
2018-07-23T22:15:43.011Z,101154.42
2018-07-23T22:18:10.155Z,101155.42
2018-07-23T22:20:37.259Z,101156.35
2018-07-23T22:23:04.688Z,101160.75
2018-07-23T22:25:31.900Z,101158.16
2018-07-23T22:27:59.011Z,101159.55
2018-07-23T22:30:26.207Z,101160.12
2018-07-23T22:32:53.371Z,101157.26
2018-07-23T22:35:20.487Z,101158.75
2018-07-23T22:37:47.728Z,101164.15
2018-07-23T22:40:14.865Z,101161.63
2018-07-23T22:42:41.997Z,101164.05
2018-07-23T22:45:09.164Z,101163.25
2018-07-23T22:47:36.261Z,101161.92
2018-07-23T22:50:03.686Z,101166.61
2018-07-23T22:52:30.878Z,101166.31
2018-07-23T22:54:58.095Z,101160.66
2018-07-23T22:57:25.218Z,101162.12
2018-07-23T22:59:52.440Z,101170.80
2018-07-23T23:02:19.571Z,101169.94
2018-07-23T23:04:46.674Z,101169.53
2018-07-23T23:07:13.836Z,101177.86
2018-07-23T23:09:40.967Z,101170.73
2018-07-23T23:12:08.156Z,101173.93
2018-07-23T23:14:35.268Z,101172.59
2018-07-23T23:17:02.395Z,101176.19
2018-07-23T23:19:30.048Z,101175.80
2018-07-23T23:21:57.191Z,101178.58
2018-07-23T23:24:24.297Z,101176.68
2018-07-23T23:26:51.958Z,101181.36
2018-07-23T23:29:19.103Z,101180.79
2018-07-23T23:31:46.234Z,101175.91
2018-07-23T23:34:13.527Z,101171.70
2018-07-23T23:36:40.620Z,101174.25
2018-07-23T23:39:09.274Z,101170.02
2018-07-23T23:41:36.843Z,101173.85
2018-07-23T23:44:03.947Z,101171.47
2018-07-23T23:46:31.165Z,101170.73
2018-07-23T23:48:58.310Z,101167.48
2018-07-23T23:51:25.434Z,101169.73
2018-07-23T23:53:52.535Z,101171.87
2018-07-23T23:56:19.680Z,101171.62
2018-07-23T23:58:46.920Z,101172.39
